Schnellsuche:     vonnach     am:               Ankunft heute   Abflug heute   
Wetterdaten des Sylter Flughafens. Alle Angaben sind ohne Gewähr.



Datum: 2018-10-22 17:10 UTC
   
Windrichtung: 290°
Windgeschwindigkeit: 13 - 24 Kt.
QNH: 1028 hPa
Temperatur: 11 °C
Taupunkt: 4 °C
rel. Luftfeuchte: 65 %

METAR EDXW 221650Z 28016KT 9999 FEW035 10/05 Q1028 RMK ATIS TAN=

Wolkenhöhen in den letzten 48 Stunden:






 

Im Jettempo nach Sylt!



Rhein-Neckar-Air

Mannheim
Die Rhein-Neckar-Air fliegt vom 26. Oktober bis zum 26. Oktober 2018 nach Mannheim. Zur Seite der Rhein-Neckar-Air: www.flyRNA.de

Lufthansa

Frankfurt/Main, Zürich und München
Die Lufthansa fliegt vom 22. Dezember bis zum 13. Oktober 2019 nach Frankfurt/Main, vom 22. Dezember bis zum 26. Oktober 2019 nach Zürich und vom 01. Dezember bis zum 26. Oktober 2019 nach München. Zur Seite der Lufthansa: www.lufthansa.de